sensor_id;sensor_type;location;lat;lon;timestamp;pressure;altitude;pressure_sealevel;temperature;humidity
32083;BME280;18597;48.328;7.932;2023-02-28T00:00:38;100168.91;;;-0.88;57.16
32083;BME280;18597;48.328;7.932;2023-02-28T00:03:04;100164.16;;;-0.75;57.01
32083;BME280;18597;48.328;7.932;2023-02-28T00:05:30;100164.81;;;-0.68;56.97
32083;BME280;18597;48.328;7.932;2023-02-28T00:07:56;100171.75;;;-0.39;55.63
32083;BME280;18597;48.328;7.932;2023-02-28T00:10:27;100166.22;;;-0.30;55.31
32083;BME280;18597;48.328;7.932;2023-02-28T00:12:56;100169.44;;;-0.48;55.57
32083;BME280;18597;48.328;7.932;2023-02-28T00:15:24;100165.56;;;-0.37;56.06
32083;BME280;18597;48.328;7.932;2023-02-28T00:17:51;100170.81;;;-0.37;55.82
32083;BME280;18597;48.328;7.932;2023-02-28T00:20:18;100164.72;;;-0.37;56.28
32083;BME280;18597;48.328;7.932;2023-02-28T00:22:49;100162.94;;;-0.37;56.04
32083;BME280;18597;48.328;7.932;2023-02-28T00:25:22;100163.28;;;-0.47;56.13
32083;BME280;18597;48.328;7.932;2023-02-28T00:27:48;100160.50;;;-0.43;56.31
32083;BME280;18597;48.328;7.932;2023-02-28T00:30:18;100142.44;;;-0.25;56.56
32083;BME280;18597;48.328;7.932;2023-02-28T00:32:44;100152.63;;;-0.43;56.70
32083;BME280;18597;48.328;7.932;2023-02-28T00:35:11;100146.78;;;-0.24;56.00
32083;BME280;18597;48.328;7.932;2023-02-28T00:37:38;100138.72;;;-0.46;56.58
32083;BME280;18597;48.328;7.932;2023-02-28T00:40:05;100149.53;;;-0.56;57.33
32083;BME280;18597;48.328;7.932;2023-02-28T00:42:32;100148.44;;;-0.48;57.17
32083;BME280;18597;48.328;7.932;2023-02-28T00:44:58;100142.47;;;-0.53;56.79
32083;BME280;18597;48.328;7.932;2023-02-28T00:47:24;100149.41;;;-0.79;57.80
32083;BME280;18597;48.328;7.932;2023-02-28T00:49:50;100147.13;;;-0.90;58.70
32083;BME280;18597;48.328;7.932;2023-02-28T00:52:16;100149.81;;;-0.93;59.43
32083;BME280;18597;48.328;7.932;2023-02-28T00:54:41;100148.00;;;-0.63;58.38
32083;BME280;18597;48.328;7.932;2023-02-28T00:57:07;100155.03;;;-0.63;57.84
32083;BME280;18597;48.328;7.932;2023-02-28T00:59:33;100150.19;;;-0.75;58.59
32083;BME280;18597;48.328;7.932;2023-02-28T01:01:59;100161.47;;;-0.73;59.38
32083;BME280;18597;48.328;7.932;2023-02-28T01:04:25;100149.72;;;-0.34;57.47
32083;BME280;18597;48.328;7.932;2023-02-28T01:06:50;100158.91;;;-0.20;56.98
32083;BME280;18597;48.328;7.932;2023-02-28T01:09:16;100157.22;;;-0.23;57.27
32083;BME280;18597;48.328;7.932;2023-02-28T01:11:42;100159.81;;;-0.21;57.00
32083;BME280;18597;48.328;7.932;2023-02-28T01:14:14;100164.03;;;-0.17;56.91
32083;BME280;18597;48.328;7.932;2023-02-28T01:16:41;100157.03;;;-0.17;57.42
32083;BME280;18597;48.328;7.932;2023-02-28T01:19:07;100155.16;;;-0.13;57.39
32083;BME280;18597;48.328;7.932;2023-02-28T01:21:33;100151.69;;;-0.14;57.34
32083;BME280;18597;48.328;7.932;2023-02-28T01:24:02;100145.25;;;-0.05;56.88
32083;BME280;18597;48.328;7.932;2023-02-28T01:26:28;100141.31;;;0.08;56.70
32083;BME280;18597;48.328;7.932;2023-02-28T01:28:53;100150.06;;;0.07;56.29
32083;BME280;18597;48.328;7.932;2023-02-28T01:31:20;100147.31;;;0.12;56.37
32083;BME280;18597;48.328;7.932;2023-02-28T01:33:47;100151.53;;;0.41;54.89
32083;BME280;18597;48.328;7.932;2023-02-28T01:36:18;100139.41;;;0.62;54.50
32083;BME280;18597;48.328;7.932;2023-02-28T01:38:45;100154.59;;;0.53;54.74
32083;BME280;18597;48.328;7.932;2023-02-28T01:41:20;100137.28;;;0.48;55.03
32083;BME280;18597;48.328;7.932;2023-02-28T01:46:22;100136.06;;;0.57;54.53
32083;BME280;18597;48.328;7.932;2023-02-28T01:49:09;100135.34;;;0.53;55.51
32083;BME280;18597;48.328;7.932;2023-02-28T01:51:44;100139.69;;;0.54;55.24
32083;BME280;18597;48.328;7.932;2023-02-28T01:54:16;100132.59;;;0.56;55.33
32083;BME280;18597;48.328;7.932;2023-02-28T01:56:49;100129.25;;;0.51;55.19
32083;BME280;18597;48.328;7.932;2023-02-28T01:59:27;100128.63;;;0.44;55.56
32083;BME280;18597;48.328;7.932;2023-02-28T02:01:55;100128.53;;;0.47;55.93
32083;BME280;18597;48.328;7.932;2023-02-28T02:04:25;100138.81;;;0.53;56.05
32083;BME280;18597;48.328;7.932;2023-02-28T02:06:53;100134.13;;;0.38;55.65
32083;BME280;18597;48.328;7.932;2023-02-28T02:09:19;100133.31;;;0.60;55.04
32083;BME280;18597;48.328;7.932;2023-02-28T02:11:45;100127.63;;;0.72;54.73
32083;BME280;18597;48.328;7.932;2023-02-28T02:17:15;100123.38;;;0.68;55.16
32083;BME280;18597;48.328;7.932;2023-02-28T02:29:47;100112.56;;;0.75;54.80
32083;BME280;18597;48.328;7.932;2023-02-28T02:38:56;100110.00;;;0.74;55.10
32083;BME280;18597;48.328;7.932;2023-02-28T02:41:43;100115.84;;;0.59;55.02
32083;BME280;18597;48.328;7.932;2023-02-28T02:44:31;100112.53;;;0.53;55.78
32083;BME280;18597;48.328;7.932;2023-02-28T02:47:10;100119.88;;;0.67;54.89
32083;BME280;18597;48.328;7.932;2023-02-28T02:49:42;100118.81;;;0.73;55.53
32083;BME280;18597;48.328;7.932;2023-02-28T02:52:12;100116.13;;;0.74;54.87
32083;BME280;18597;48.328;7.932;2023-02-28T02:54:44;100115.38;;;0.71;55.02
32083;BME280;18597;48.328;7.932;2023-02-28T02:57:23;100116.94;;;0.53;55.90
32083;BME280;18597;48.328;7.932;2023-02-28T02:59:51;100114.59;;;0.69;55.47
32083;BME280;18597;48.328;7.932;2023-02-28T03:02:18;100104.75;;;0.50;56.26
32083;BME280;18597;48.328;7.932;2023-02-28T03:04:52;100106.50;;;0.50;55.58
32083;BME280;18597;48.328;7.932;2023-02-28T03:07:19;100109.09;;;0.51;56.17
32083;BME280;18597;48.328;7.932;2023-02-28T03:09:55;100108.94;;;0.56;55.94
32083;BME280;18597;48.328;7.932;2023-02-28T03:12:26;100114.47;;;0.72;55.31
32083;BME280;18597;48.328;7.932;2023-02-28T03:15:27;100106.75;;;0.67;55.14
32083;BME280;18597;48.328;7.932;2023-02-28T03:18:07;100111.78;;;0.50;55.78
32083;BME280;18597;48.328;7.932;2023-02-28T03:21:11;100107.28;;;0.53;55.89
32083;BME280;18597;48.328;7.932;2023-02-28T03:23:56;100103.94;;;0.48;55.78
32083;BME280;18597;48.328;7.932;2023-02-28T03:26:27;100102.97;;;0.51;56.06
32083;BME280;18597;48.328;7.932;2023-02-28T03:29:12;100097.03;;;0.69;55.50
32083;BME280;18597;48.328;7.932;2023-02-28T03:31:52;100089.94;;;0.48;56.56
32083;BME280;18597;48.328;7.932;2023-02-28T03:34:34;100106.72;;;0.44;57.18
32083;BME280;18597;48.328;7.932;2023-02-28T03:37:08;100095.03;;;0.52;56.54
32083;BME280;18597;48.328;7.932;2023-02-28T03:39:43;100107.31;;;0.52;56.54
32083;BME280;18597;48.328;7.932;2023-02-28T03:42:19;100095.56;;;0.62;56.28
32083;BME280;18597;48.328;7.932;2023-02-28T03:44:53;100102.41;;;0.66;56.10
32083;BME280;18597;48.328;7.932;2023-02-28T03:47:46;100096.63;;;0.57;56.21
32083;BME280;18597;48.328;7.932;2023-02-28T03:50:29;100093.81;;;0.38;57.10
32083;BME280;18597;48.328;7.932;2023-02-28T03:53:16;100097.13;;;0.43;57.27
32083;BME280;18597;48.328;7.932;2023-02-28T03:55:50;100097.84;;;0.48;56.43
32083;BME280;18597;48.328;7.932;2023-02-28T04:01:33;100111.44;;;0.59;56.39
32083;BME280;18597;48.328;7.932;2023-02-28T04:04:02;100107.66;;;0.66;55.86
32083;BME280;18597;48.328;7.932;2023-02-28T04:06:32;100100.69;;;0.65;56.05
32083;BME280;18597;48.328;7.932;2023-02-28T04:08:58;100101.66;;;0.63;56.31
32083;BME280;18597;48.328;7.932;2023-02-28T04:11:35;100111.03;;;0.70;56.74
32083;BME280;18597;48.328;7.932;2023-02-28T04:14:04;100102.31;;;0.69;56.47
32083;BME280;18597;48.328;7.932;2023-02-28T04:16:31;100093.59;;;0.67;56.42
32083;BME280;18597;48.328;7.932;2023-02-28T04:18:57;100094.63;;;0.63;56.76
32083;BME280;18597;48.328;7.932;2023-02-28T04:21:34;100108.06;;;0.55;56.97
32083;BME280;18597;48.328;7.932;2023-02-28T04:24:01;100102.25;;;0.47;57.10
32083;BME280;18597;48.328;7.932;2023-02-28T04:26:35;100099.41;;;0.52;57.19
32083;BME280;18597;48.328;7.932;2023-02-28T04:29:04;100104.75;;;0.50;57.69
32083;BME280;18597;48.328;7.932;2023-02-28T04:31:29;100103.09;;;0.48;57.21
32083;BME280;18597;48.328;7.932;2023-02-28T04:33:55;100106.44;;;0.53;57.58
32083;BME280;18597;48.328;7.932;2023-02-28T04:36:21;100109.06;;;0.53;57.03
32083;BME280;18597;48.328;7.932;2023-02-28T04:38:48;100102.47;;;0.41;57.81
32083;BME280;18597;48.328;7.932;2023-02-28T04:41:15;100110.69;;;0.55;57.51
32083;BME280;18597;48.328;7.932;2023-02-28T04:43:41;100106.16;;;0.36;58.49
32083;BME280;18597;48.328;7.932;2023-02-28T04:46:07;100102.19;;;0.49;57.80
32083;BME280;18597;48.328;7.932;2023-02-28T04:48:36;100097.50;;;0.57;57.51
32083;BME280;18597;48.328;7.932;2023-02-28T04:51:06;100111.44;;;0.59;57.46
32083;BME280;18597;48.328;7.932;2023-02-28T04:53:32;100105.03;;;0.43;58.34
32083;BME280;18597;48.328;7.932;2023-02-28T04:55:58;100112.06;;;0.42;58.41
32083;BME280;18597;48.328;7.932;2023-02-28T04:58:25;100115.88;;;0.34;58.66
32083;BME280;18597;48.328;7.932;2023-02-28T05:00:53;100112.69;;;0.49;58.20
32083;BME280;18597;48.328;7.932;2023-02-28T05:03:20;100115.38;;;0.47;58.57
32083;BME280;18597;48.328;7.932;2023-02-28T05:05:47;100114.03;;;0.36;58.50
32083;BME280;18597;48.328;7.932;2023-02-28T05:08:13;100123.19;;;0.25;59.10
32083;BME280;18597;48.328;7.932;2023-02-28T05:10:39;100120.63;;;0.22;59.76
32083;BME280;18597;48.328;7.932;2023-02-28T05:13:05;100116.09;;;0.27;59.64
32083;BME280;18597;48.328;7.932;2023-02-28T05:15:31;100117.22;;;0.20;59.99
32083;BME280;18597;48.328;7.932;2023-02-28T05:17:57;100124.75;;;0.30;59.77
32083;BME280;18597;48.328;7.932;2023-02-28T05:20:23;100116.66;;;0.36;59.96
32083;BME280;18597;48.328;7.932;2023-02-28T05:22:49;100116.09;;;0.27;60.49
32083;BME280;18597;48.328;7.932;2023-02-28T05:25:19;100116.84;;;0.31;59.90
32083;BME280;18597;48.328;7.932;2023-02-28T05:27:47;100110.91;;;0.26;59.69
32083;BME280;18597;48.328;7.932;2023-02-28T05:30:13;100116.63;;;0.12;60.93
32083;BME280;18597;48.328;7.932;2023-02-28T05:32:40;100125.81;;;0.25;60.38
32083;BME280;18597;48.328;7.932;2023-02-28T05:35:10;100120.03;;;0.16;61.56
32083;BME280;18597;48.328;7.932;2023-02-28T05:37:37;100123.50;;;0.16;61.46
32083;BME280;18597;48.328;7.932;2023-02-28T05:40:06;100125.00;;;0.23;61.58
32083;BME280;18597;48.328;7.932;2023-02-28T05:42:33;100120.28;;;0.08;61.85
32083;BME280;18597;48.328;7.932;2023-02-28T05:44:59;100122.94;;;0.07;62.69
32083;BME280;18597;48.328;7.932;2023-02-28T05:47:25;100131.06;;;0.25;62.73
32083;BME280;18597;48.328;7.932;2023-02-28T05:49:50;100126.38;;;0.34;62.51
32083;BME280;18597;48.328;7.932;2023-02-28T05:52:17;100124.28;;;0.43;61.19
32083;BME280;18597;48.328;7.932;2023-02-28T05:54:43;100129.88;;;0.34;62.06
32083;BME280;18597;48.328;7.932;2023-02-28T05:57:09;100130.88;;;0.30;62.01
32083;BME280;18597;48.328;7.932;2023-02-28T05:59:35;100141.19;;;0.36;62.29
32083;BME280;18597;48.328;7.932;2023-02-28T06:02:06;100138.19;;;0.22;63.02
32083;BME280;18597;48.328;7.932;2023-02-28T06:04:36;100137.28;;;0.23;63.53
32083;BME280;18597;48.328;7.932;2023-02-28T06:07:02;100141.66;;;0.22;64.16
32083;BME280;18597;48.328;7.932;2023-02-28T06:09:29;100141.44;;;0.28;64.89
32083;BME280;18597;48.328;7.932;2023-02-28T06:11:58;100135.78;;;0.41;64.70
32083;BME280;18597;48.328;7.932;2023-02-28T06:14:25;100147.09;;;0.43;64.39
32083;BME280;18597;48.328;7.932;2023-02-28T06:16:51;100137.63;;;0.37;63.99
32083;BME280;18597;48.328;7.932;2023-02-28T06:19:17;100150.09;;;0.32;64.11
32083;BME280;18597;48.328;7.932;2023-02-28T06:21:43;100147.41;;;0.34;65.22
32083;BME280;18597;48.328;7.932;2023-02-28T06:24:10;100153.66;;;0.31;65.71
32083;BME280;18597;48.328;7.932;2023-02-28T06:26:36;100159.06;;;0.26;65.78
32083;BME280;18597;48.328;7.932;2023-02-28T06:29:02;100155.50;;;0.27;66.56
32083;BME280;18597;48.328;7.932;2023-02-28T06:31:29;100160.63;;;0.32;66.05
32083;BME280;18597;48.328;7.932;2023-02-28T06:33:55;100169.50;;;0.28;65.22
32083;BME280;18597;48.328;7.932;2023-02-28T06:36:22;100166.59;;;0.36;64.22
32083;BME280;18597;48.328;7.932;2023-02-28T06:38:48;100174.44;;;0.37;64.81
32083;BME280;18597;48.328;7.932;2023-02-28T06:41:22;100180.03;;;0.53;64.13
32083;BME280;18597;48.328;7.932;2023-02-28T06:43:48;100170.47;;;0.50;64.33
32083;BME280;18597;48.328;7.932;2023-02-28T06:46:14;100183.88;;;0.43;66.05
32083;BME280;18597;48.328;7.932;2023-02-28T06:48:43;100180.25;;;0.47;66.11
32083;BME280;18597;48.328;7.932;2023-02-28T06:51:14;100188.81;;;0.52;66.59
32083;BME280;18597;48.328;7.932;2023-02-28T06:53:41;100187.81;;;0.56;65.01
32083;BME280;18597;48.328;7.932;2023-02-28T06:56:10;100188.59;;;0.58;65.70
32083;BME280;18597;48.328;7.932;2023-02-28T06:58:37;100184.63;;;0.71;65.63
32083;BME280;18597;48.328;7.932;2023-02-28T07:01:04;100183.34;;;0.81;66.07
32083;BME280;18597;48.328;7.932;2023-02-28T07:03:31;100186.91;;;0.80;65.60
32083;BME280;18597;48.328;7.932;2023-02-28T07:05:57;100184.47;;;0.76;65.38
32083;BME280;18597;48.328;7.932;2023-02-28T07:08:24;100193.09;;;1.03;65.33
32083;BME280;18597;48.328;7.932;2023-02-28T07:10:55;100190.59;;;0.76;65.56
32083;BME280;18597;48.328;7.932;2023-02-28T07:13:21;100193.78;;;0.85;67.02
32083;BME280;18597;48.328;7.932;2023-02-28T07:15:59;100193.09;;;0.79;67.30
32083;BME280;18597;48.328;7.932;2023-02-28T07:18:25;100201.03;;;0.78;67.03
32083;BME280;18597;48.328;7.932;2023-02-28T07:20:52;100199.19;;;0.80;67.56
32083;BME280;18597;48.328;7.932;2023-02-28T07:23:18;100199.97;;;0.83;66.91
32083;BME280;18597;48.328;7.932;2023-02-28T07:25:45;100197.91;;;0.92;67.08
32083;BME280;18597;48.328;7.932;2023-02-28T07:28:12;100194.00;;;1.02;67.40
32083;BME280;18597;48.328;7.932;2023-02-28T07:30:38;100193.56;;;1.14;67.41
32083;BME280;18597;48.328;7.932;2023-02-28T07:33:04;100196.63;;;1.25;66.81
32083;BME280;18597;48.328;7.932;2023-02-28T07:35:31;100190.09;;;1.35;67.04
32083;BME280;18597;48.328;7.932;2023-02-28T07:37:58;100195.88;;;1.45;66.72
32083;BME280;18597;48.328;7.932;2023-02-28T07:40:24;100200.44;;;1.40;64.77
32083;BME280;18597;48.328;7.932;2023-02-28T07:42:50;100191.59;;;1.19;65.29
32083;BME280;18597;48.328;7.932;2023-02-28T07:45:16;100194.25;;;1.41;65.14
32083;BME280;18597;48.328;7.932;2023-02-28T07:47:43;100195.66;;;1.50;65.88
32083;BME280;18597;48.328;7.932;2023-02-28T07:50:12;100199.00;;;1.55;64.57
32083;BME280;18597;48.328;7.932;2023-02-28T07:52:39;100197.28;;;1.54;63.93
32083;BME280;18597;48.328;7.932;2023-02-28T07:55:07;100202.28;;;1.38;63.77
32083;BME280;18597;48.328;7.932;2023-02-28T07:57:33;100199.59;;;1.39;63.89
32083;BME280;18597;48.328;7.932;2023-02-28T07:59:59;100199.97;;;1.52;63.67
32083;BME280;18597;48.328;7.932;2023-02-28T08:02:26;100197.59;;;1.68;63.22
32083;BME280;18597;48.328;7.932;2023-02-28T08:04:51;100190.34;;;1.73;64.08
32083;BME280;18597;48.328;7.932;2023-02-28T08:07:18;100196.16;;;1.81;63.23
32083;BME280;18597;48.328;7.932;2023-02-28T08:09:44;100197.16;;;1.79;62.51
32083;BME280;18597;48.328;7.932;2023-02-28T08:12:11;100207.75;;;1.77;62.97
32083;BME280;18597;48.328;7.932;2023-02-28T08:14:37;100205.13;;;1.77;63.94
32083;BME280;18597;48.328;7.932;2023-02-28T08:17:04;100210.88;;;1.87;64.75
32083;BME280;18597;48.328;7.932;2023-02-28T08:19:31;100207.81;;;1.98;64.80
32083;BME280;18597;48.328;7.932;2023-02-28T08:21:57;100215.88;;;2.15;64.47
32083;BME280;18597;48.328;7.932;2023-02-28T08:24:24;100218.66;;;2.12;64.62
32083;BME280;18597;48.328;7.932;2023-02-28T08:26:50;100213.22;;;2.15;64.34
32083;BME280;18597;48.328;7.932;2023-02-28T08:29:16;100212.22;;;2.17;63.54
32083;BME280;18597;48.328;7.932;2023-02-28T08:31:42;100218.31;;;2.19;63.40
32083;BME280;18597;48.328;7.932;2023-02-28T08:34:11;100211.22;;;2.00;63.02
32083;BME280;18597;48.328;7.932;2023-02-28T08:36:38;100215.72;;;1.98;63.94
32083;BME280;18597;48.328;7.932;2023-02-28T08:39:04;100219.91;;;2.02;62.96
32083;BME280;18597;48.328;7.932;2023-02-28T08:41:31;100213.84;;;2.21;63.52
32083;BME280;18597;48.328;7.932;2023-02-28T08:43:57;100218.78;;;2.29;63.72
32083;BME280;18597;48.328;7.932;2023-02-28T08:46:23;100219.38;;;2.36;63.21
32083;BME280;18597;48.328;7.932;2023-02-28T08:48:54;100215.59;;;2.41;63.50
32083;BME280;18597;48.328;7.932;2023-02-28T08:51:21;100222.91;;;2.14;62.05
32083;BME280;18597;48.328;7.932;2023-02-28T08:53:53;100227.84;;;1.80;63.72
32083;BME280;18597;48.328;7.932;2023-02-28T08:56:20;100225.44;;;1.95;63.85
32083;BME280;18597;48.328;7.932;2023-02-28T08:58:48;100231.44;;;2.21;62.98
32083;BME280;18597;48.328;7.932;2023-02-28T09:01:19;100225.25;;;2.42;62.80
32083;BME280;18597;48.328;7.932;2023-02-28T09:03:47;100227.50;;;2.52;62.49
32083;BME280;18597;48.328;7.932;2023-02-28T09:06:15;100229.06;;;2.56;61.04
32083;BME280;18597;48.328;7.932;2023-02-28T09:08:41;100226.75;;;2.68;59.34
32083;BME280;18597;48.328;7.932;2023-02-28T09:11:07;100226.25;;;2.60;60.73
32083;BME280;18597;48.328;7.932;2023-02-28T09:13:33;100228.47;;;2.69;60.12
32083;BME280;18597;48.328;7.932;2023-02-28T09:16:01;100229.47;;;2.67;59.27
32083;BME280;18597;48.328;7.932;2023-02-28T09:18:28;100228.22;;;2.35;60.12
32083;BME280;18597;48.328;7.932;2023-02-28T09:20:55;100228.75;;;2.01;60.29
32083;BME280;18597;48.328;7.932;2023-02-28T09:23:21;100229.38;;;2.07;61.58
32083;BME280;18597;48.328;7.932;2023-02-28T09:25:50;100232.03;;;2.28;61.54
32083;BME280;18597;48.328;7.932;2023-02-28T09:28:17;100225.38;;;2.60;60.53
32083;BME280;18597;48.328;7.932;2023-02-28T09:30:48;100227.03;;;2.83;58.78
32083;BME280;18597;48.328;7.932;2023-02-28T09:33:15;100236.19;;;2.74;59.35
32083;BME280;18597;48.328;7.932;2023-02-28T09:35:42;100237.50;;;2.84;57.72
32083;BME280;18597;48.328;7.932;2023-02-28T09:38:10;100233.16;;;2.63;58.56
32083;BME280;18597;48.328;7.932;2023-02-28T09:40:45;100223.28;;;2.68;60.34
32083;BME280;18597;48.328;7.932;2023-02-28T09:43:14;100234.00;;;2.84;58.63
32083;BME280;18597;48.328;7.932;2023-02-28T09:45:55;100233.50;;;2.55;59.65
32083;BME280;18597;48.328;7.932;2023-02-28T09:48:32;100234.28;;;2.77;58.78
32083;BME280;18597;48.328;7.932;2023-02-28T09:51:09;100234.69;;;3.08;57.80
32083;BME280;18597;48.328;7.932;2023-02-28T09:53:39;100231.59;;;3.18;56.99
32083;BME280;18597;48.328;7.932;2023-02-28T09:56:14;100238.94;;;3.49;56.80
32083;BME280;18597;48.328;7.932;2023-02-28T09:59:30;100244.44;;;3.64;55.56
32083;BME280;18597;48.328;7.932;2023-02-28T10:05:12;100241.56;;;3.12;56.21
32083;BME280;18597;48.328;7.932;2023-02-28T10:08:17;100243.38;;;3.10;56.92
32083;BME280;18597;48.328;7.932;2023-02-28T10:10:49;100247.28;;;2.82;56.91
32083;BME280;18597;48.328;7.932;2023-02-28T10:14:15;100241.72;;;2.88;57.35
32083;BME280;18597;48.328;7.932;2023-02-28T10:17:23;100240.97;;;3.24;56.87
32083;BME280;18597;48.328;7.932;2023-02-28T10:19:49;100240.34;;;3.38;54.80
32083;BME280;18597;48.328;7.932;2023-02-28T10:22:27;100250.41;;;3.29;55.52
32083;BME280;18597;48.328;7.932;2023-02-28T10:24:55;100247.06;;;2.87;56.22
32083;BME280;18597;48.328;7.932;2023-02-28T10:27:30;100242.19;;;3.17;55.80
32083;BME280;18597;48.328;7.932;2023-02-28T10:29:59;100241.25;;;2.99;55.83
32083;BME280;18597;48.328;7.932;2023-02-28T10:32:34;100249.13;;;3.19;56.16
32083;BME280;18597;48.328;7.932;2023-02-28T10:35:16;100251.03;;;2.76;56.87
32083;BME280;18597;48.328;7.932;2023-02-28T10:37:47;100249.25;;;3.16;56.53
32083;BME280;18597;48.328;7.932;2023-02-28T10:40:30;100254.28;;;3.41;54.99
32083;BME280;18597;48.328;7.932;2023-02-28T10:43:19;100239.28;;;3.60;54.91
32083;BME280;18597;48.328;7.932;2023-02-28T10:48:45;100245.31;;;3.06;55.17
32083;BME280;18597;48.328;7.932;2023-02-28T10:51:18;100239.00;;;3.29;55.67
32083;BME280;18597;48.328;7.932;2023-02-28T10:53:54;100248.28;;;3.38;55.43
32083;BME280;18597;48.328;7.932;2023-02-28T10:56:23;100253.78;;;3.33;55.70
32083;BME280;18597;48.328;7.932;2023-02-28T10:59:31;100252.28;;;3.27;55.82
32083;BME280;18597;48.328;7.932;2023-02-28T11:01:57;100258.13;;;3.53;54.49
32083;BME280;18597;48.328;7.932;2023-02-28T11:07:18;100254.03;;;3.83;53.48
32083;BME280;18597;48.328;7.932;2023-02-28T11:09:49;100259.41;;;3.82;52.73
32083;BME280;18597;48.328;7.932;2023-02-28T11:12:27;100261.06;;;3.28;54.42
32083;BME280;18597;48.328;7.932;2023-02-28T11:14:59;100257.72;;;3.43;54.47
32083;BME280;18597;48.328;7.932;2023-02-28T11:17:30;100255.13;;;3.60;55.00
32083;BME280;18597;48.328;7.932;2023-02-28T11:20:05;100263.44;;;3.72;53.54
32083;BME280;18597;48.328;7.932;2023-02-28T11:22:38;100260.66;;;3.17;54.94
32083;BME280;18597;48.328;7.932;2023-02-28T11:25:21;100261.63;;;3.53;54.96
32083;BME280;18597;48.328;7.932;2023-02-28T11:27:52;100261.56;;;3.74;53.70
32083;BME280;18597;48.328;7.932;2023-02-28T11:30:40;100263.38;;;2.96;55.05
32083;BME280;18597;48.328;7.932;2023-02-28T11:33:29;100267.91;;;2.52;57.06
32083;BME280;18597;48.328;7.932;2023-02-28T11:36:02;100275.19;;;2.88;56.12
32083;BME280;18597;48.328;7.932;2023-02-28T11:38:29;100273.06;;;2.55;57.13
32083;BME280;18597;48.328;7.932;2023-02-28T11:47:26;100262.00;;;3.27;56.39
32083;BME280;18597;48.328;7.932;2023-02-28T12:02:59;100260.66;;;3.56;54.29
32083;BME280;18597;48.328;7.932;2023-02-28T12:05:46;100251.00;;;3.36;54.90
32083;BME280;18597;48.328;7.932;2023-02-28T12:09:00;100259.25;;;3.85;53.63
32083;BME280;18597;48.328;7.932;2023-02-28T12:11:52;100255.09;;;3.98;52.59
32083;BME280;18597;48.328;7.932;2023-02-28T12:25:14;100239.72;;;4.06;52.68
32083;BME280;18597;48.328;7.932;2023-02-28T12:27:24;100237.34;;;4.54;51.34
32083;BME280;18597;48.328;7.932;2023-02-28T12:32:49;100227.28;;;4.08;51.67
32083;BME280;18597;48.328;7.932;2023-02-28T12:35:26;100221.38;;;4.21;52.47
32083;BME280;18597;48.328;7.932;2023-02-28T12:38:07;100226.03;;;4.67;51.30
32083;BME280;18597;48.328;7.932;2023-02-28T12:43:40;100229.50;;;5.83;48.59
32083;BME280;18597;48.328;7.932;2023-02-28T12:46:21;100222.44;;;6.29;47.13
32083;BME280;18597;48.328;7.932;2023-02-28T12:48:55;100223.91;;;6.19;46.49
32083;BME280;18597;48.328;7.932;2023-02-28T12:51:23;100217.69;;;6.04;47.24
32083;BME280;18597;48.328;7.932;2023-02-28T12:55:13;100220.78;;;6.13;46.37
32083;BME280;18597;48.328;7.932;2023-02-28T12:57:27;100234.63;;;6.48;45.68
32083;BME280;18597;48.328;7.932;2023-02-28T13:00:02;100225.81;;;5.38;47.56
32083;BME280;18597;48.328;7.932;2023-02-28T13:09:14;100226.03;;;6.28;47.15
32083;BME280;18597;48.328;7.932;2023-02-28T13:11:48;100232.56;;;4.95;49.45
32083;BME280;18597;48.328;7.932;2023-02-28T13:14:30;100230.38;;;5.19;48.42
32083;BME280;18597;48.328;7.932;2023-02-28T13:22:42;100227.84;;;5.33;49.03
32083;BME280;18597;48.328;7.932;2023-02-28T13:25:49;100233.63;;;4.91;49.06
32083;BME280;18597;48.328;7.932;2023-02-28T13:28:57;100232.13;;;5.36;48.79
32083;BME280;18597;48.328;7.932;2023-02-28T13:31:23;100236.44;;;5.54;48.13
32083;BME280;18597;48.328;7.932;2023-02-28T13:36:31;100231.97;;;4.72;50.13
32083;BME280;18597;48.328;7.932;2023-02-28T13:39:03;100220.91;;;4.64;49.93
32083;BME280;18597;48.328;7.932;2023-02-28T13:44:23;100232.81;;;3.85;51.81
32083;BME280;18597;48.328;7.932;2023-02-28T13:49:31;100227.84;;;3.79;52.81
32083;BME280;18597;48.328;7.932;2023-02-28T13:52:20;100240.22;;;3.78;52.80
32083;BME280;18597;48.328;7.932;2023-02-28T13:55:28;100232.28;;;3.78;52.31
32083;BME280;18597;48.328;7.932;2023-02-28T14:05:00;100230.41;;;3.80;52.38
32083;BME280;18597;48.328;7.932;2023-02-28T14:07:21;100223.84;;;3.70;53.96
32083;BME280;18597;48.328;7.932;2023-02-28T14:10:02;100217.47;;;3.93;53.63
32083;BME280;18597;48.328;7.932;2023-02-28T14:15:55;100216.97;;;3.85;54.48
32083;BME280;18597;48.328;7.932;2023-02-28T14:18:28;100212.34;;;4.07;53.69
32083;BME280;18597;48.328;7.932;2023-02-28T14:21:01;100223.09;;;4.22;52.53
32083;BME280;18597;48.328;7.932;2023-02-28T14:33:54;100217.41;;;4.29;51.87
32083;BME280;18597;48.328;7.932;2023-02-28T14:36:33;100208.41;;;4.33;52.84
32083;BME280;18597;48.328;7.932;2023-02-28T14:41:44;100204.72;;;4.36;52.25
32083;BME280;18597;48.328;7.932;2023-02-28T14:44:23;100204.81;;;4.52;51.62
32083;BME280;18597;48.328;7.932;2023-02-28T14:46:56;100217.56;;;4.43;52.09
32083;BME280;18597;48.328;7.932;2023-02-28T14:49:29;100210.41;;;4.45;51.41
32083;BME280;18597;48.328;7.932;2023-02-28T14:52:19;100207.53;;;4.50;51.88
32083;BME280;18597;48.328;7.932;2023-02-28T14:54:47;100210.81;;;4.55;52.32
32083;BME280;18597;48.328;7.932;2023-02-28T14:57:29;100216.25;;;4.69;51.52
32083;BME280;18597;48.328;7.932;2023-02-28T15:00:26;100212.34;;;4.77;51.04
32083;BME280;18597;48.328;7.932;2023-02-28T15:02:53;100208.22;;;4.71;51.55
32083;BME280;18597;48.328;7.932;2023-02-28T15:05:30;100207.97;;;4.76;51.75
32083;BME280;18597;48.328;7.932;2023-02-28T15:08:13;100214.41;;;4.87;51.36
32083;BME280;18597;48.328;7.932;2023-02-28T15:11:01;100201.81;;;4.92;51.57
32083;BME280;18597;48.328;7.932;2023-02-28T15:13:48;100208.72;;;4.95;51.45
32083;BME280;18597;48.328;7.932;2023-02-28T15:16:22;100206.56;;;4.86;51.46
32083;BME280;18597;48.328;7.932;2023-02-28T15:21:30;100209.53;;;4.80;52.23